Time;durP1;ratioP1;P1;durP2;ratioP2;P2;SDS_P1;SDS_P2;PMS_P1;PMS_P2;Temp;Humidity;BMP_temperature;BMP_pressure;BME280_temperature;BME280_humidity;BME280_pressure;Samples;Min_cycle;Max_cycle;Signal;HPM_P1;HPM_P2
2022/08/10 00:02:14;;;;;;;3.00;1.98;;;;;;;18.58;65.47;102471.84;6217507;23;20098;-86
2022/08/10 00:04:40;;;;;;;2.50;1.80;;;;;;;18.56;65.96;102475.94;6190692;23;20008;-86
2022/08/10 00:07:08;;;;;;;4.87;2.13;;;;;;;18.55;65.88;102477.81;6215866;23;20044;-86
2022/08/10 00:09:34;;;;;;;3.63;1.80;;;;;;;18.47;66.32;102475.41;6215663;23;20024;-86
2022/08/10 00:11:59;;;;;;;3.50;1.90;;;;;;;18.48;66.23;102477.06;6191784;23;20008;-86
2022/08/10 00:14:27;;;;;;;3.60;1.90;;;;;;;18.43;66.67;102473.34;6190331;23;20008;-87
2022/08/10 00:22:23;;;;;;;3.30;1.80;;;;;;;18.34;66.72;102476.38;6183394;23;20362;-86
2022/08/10 00:24:52;;;;;;;3.25;1.70;;;;;;;18.28;67.29;102477.28;6187217;23;20021;-86
2022/08/10 00:27:18;;;;;;;2.53;1.83;;;;;;;18.25;67.74;102464.00;6185495;23;20547;-86
2022/08/10 00:29:46;;;;;;;4.47;2.07;;;;;;;18.22;68.49;102458.97;6185879;23;20102;-86
2022/08/10 00:32:12;;;;;;;4.03;1.90;;;;;;;18.19;67.75;102463.00;6185482;23;20009;-86
2022/08/10 00:34:38;;;;;;;3.95;2.10;;;;;;;18.15;67.60;102456.28;6185043;23;20012;-86
2022/08/10 00:37:03;;;;;;;1.93;1.73;;;;;;;18.14;68.39;102456.50;6186234;23;20021;-86
2022/08/10 00:39:29;;;;;;;2.55;2.00;;;;;;;18.07;68.16;102456.59;6185122;23;20486;-86
2022/08/10 00:42:01;;;;;;;4.32;2.03;;;;;;;18.06;67.69;102454.91;6185019;23;20019;-86
2022/08/10 00:44:29;;;;;;;3.17;1.90;;;;;;;18.09;68.21;102453.63;6186359;23;20005;-86
2022/08/10 00:46:59;;;;;;;3.35;1.90;;;;;;;18.01;67.99;102458.34;6186238;23;20016;-86
2022/08/10 00:49:27;;;;;;;5.75;2.10;;;;;;;17.99;68.70;102465.13;6185819;23;20012;-85
2022/08/10 00:51:54;;;;;;;2.50;1.80;;;;;;;17.96;68.31;102452.66;6184672;23;20016;-85
2022/08/10 00:54:19;;;;;;;2.83;1.90;;;;;;;17.91;68.57;102454.41;6184527;23;20005;-85
2022/08/10 00:56:51;;;;;;;2.60;1.83;;;;;;;17.91;68.42;102458.00;6186541;23;20033;-86
2022/08/10 00:59:20;;;;;;;3.35;2.10;;;;;;;17.86;68.91;102452.31;6162279;23;20005;-86
2022/08/10 01:01:45;;;;;;;3.38;2.15;;;;;;;17.84;68.63;102448.97;6185259;23;20330;-85
2022/08/10 01:04:13;;;;;;;5.13;2.03;;;;;;;17.79;69.74;102452.38;6184991;23;20009;-85
2022/08/10 01:07:09;;;;;;;5.10;2.28;;;;;;;17.80;68.43;102451.31;6186406;23;20062;-85
2022/08/10 01:09:48;;;;;;;3.80;2.20;;;;;;;17.77;68.25;102449.00;6184834;23;20013;-85
2022/08/10 01:12:35;;;;;;;5.05;2.10;;;;;;;17.70;68.85;102446.34;6185337;23;20005;-86
2022/08/10 01:15:08;;;;;;;2.80;2.07;;;;;;;17.70;69.93;102456.47;6185222;23;20489;-85
2022/08/10 01:18:12;;;;;;;2.47;2.00;;;;;;;17.65;68.50;102440.66;6185093;23;20012;-86
2022/08/10 01:20:41;;;;;;;3.10;2.03;;;;;;;17.63;69.48;102448.28;6184729;23;20020;-86
2022/08/10 01:23:31;;;;;;;2.38;2.17;;;;;;;17.58;68.92;102439.88;6184790;23;20009;-86
2022/08/10 01:26:34;;;;;;;3.00;2.20;;;;;;;17.57;69.21;102440.09;6185452;23;20088;-85
2022/08/10 01:29:46;;;;;;;3.93;2.33;;;;;;;17.53;69.11;102447.94;6185056;23;20008;-86
2022/08/10 01:32:16;;;;;;;3.88;2.30;;;;;;;17.48;70.50;102439.53;6185342;23;20016;-86
2022/08/10 01:34:50;;;;;;;4.53;2.05;;;;;;;17.47;70.51;102446.94;6184837;23;20032;-86
2022/08/10 01:37:23;;;;;;;8.35;2.60;;;;;;;17.45;71.09;102443.59;6210352;23;20012;-85
2022/08/10 01:39:56;;;;;;;4.75;2.40;;;;;;;17.42;70.86;102440.44;6186600;23;20001;-85
2022/08/10 01:42:23;;;;;;;4.17;2.20;;;;;;;17.41;71.48;102439.59;6185725;23;20411;-85
2022/08/10 01:44:53;;;;;;;3.67;2.15;;;;;;;17.35;71.49;102443.25;6184896;23;20009;-85
2022/08/10 01:50:16;;;;;;;4.45;2.45;;;;;;;17.33;71.68;102450.84;6186143;23;20067;-85
2022/08/10 01:52:47;;;;;;;3.78;2.20;;;;;;;17.30;71.47;102445.78;6184470;23;20005;-85
2022/08/10 01:55:15;;;;;;;3.93;2.60;;;;;;;17.26;72.09;102447.28;6184544;23;20013;-85
2022/08/10 01:57:45;;;;;;;2.95;2.30;;;;;;;17.23;72.15;102448.59;6159827;23;20017;-86
2022/08/10 02:00:14;;;;;;;2.83;2.50;;;;;;;17.21;72.43;102436.16;6184571;23;20009;-85
2022/08/10 02:02:42;;;;;;;3.88;2.33;;;;;;;17.17;72.62;102453.06;6184686;23;20016;-85
2022/08/10 02:05:12;;;;;;;3.88;2.70;;;;;;;17.17;72.48;102449.50;6184350;23;20043;-85
2022/08/10 02:07:40;;;;;;;4.60;2.60;;;;;;;17.14;72.52;102444.41;6185713;23;20012;-85
2022/08/10 02:10:10;;;;;;;2.88;2.58;;;;;;;17.10;72.72;102443.19;6184703;23;20009;-86
2022/08/10 02:12:36;;;;;;;2.60;2.40;;;;;;;17.07;72.83;102446.38;6185700;23;20017;-86
2022/08/10 02:15:11;;;;;;;2.50;2.30;;;;;;;17.00;72.74;102443.66;6184265;23;20016;-85
2022/08/10 02:17:44;;;;;;;4.95;2.70;;;;;;;16.98;72.70;102441.16;6184962;23;20009;-85
2022/08/10 02:20:16;;;;;;;6.23;2.47;;;;;;;16.97;73.24;102444.13;6185731;23;20001;-85
2022/08/10 02:22:46;;;;;;;3.85;2.85;;;;;;;16.95;73.43;102440.75;6160824;23;20403;-85
2022/08/10 02:25:12;;;;;;;4.18;2.60;;;;;;;16.91;73.58;102434.84;6160269;23;20009;-86
2022/08/10 02:27:39;;;;;;;7.75;2.63;;;;;;;16.90;73.78;102435.91;6185877;23;20080;-86
2022/08/10 02:30:11;;;;;;;5.30;2.60;;;;;;;16.86;73.77;102429.19;6159297;23;20009;-85
2022/08/10 02:32:40;;;;;;;3.13;2.67;;;;;;;16.84;73.70;102431.28;6185851;23;20005;-86
2022/08/10 02:35:11;;;;;;;5.80;2.80;;;;;;;16.77;74.00;102434.06;6159687;23;20016;-85
2022/08/10 02:37:41;;;;;;;3.22;2.38;;;;;;;16.75;74.63;102432.59;6160301;23;20023;-89
2022/08/10 02:40:08;;;;;;;4.82;2.65;;;;;;;16.72;74.25;102433.03;6159324;23;20088;-88
2022/08/10 02:42:50;;;;;;;3.45;2.60;;;;;;;16.73;74.43;102438.28;6159672;23;20009;-88
2022/08/10 02:45:28;;;;;;;2.93;2.67;;;;;;;16.69;74.26;102436.22;6186516;23;20005;-88
2022/08/10 02:48:04;;;;;;;4.75;2.40;;;;;;;16.68;74.18;102432.63;6159269;23;20063;-88
2022/08/10 02:50:40;;;;;;;4.10;2.90;;;;;;;16.66;74.42;102438.31;6159936;23;20477;-88
2022/08/10 02:53:09;;;;;;;4.70;3.00;;;;;;;16.60;74.67;102433.72;6186327;23;20087;-88
2022/08/10 02:55:58;;;;;;;3.00;2.75;;;;;;;16.60;73.97;102430.97;6159478;23;20439;-88
2022/08/10 02:58:32;;;;;;;3.13;2.83;;;;;;;16.54;75.18;102420.88;6159656;23;20032;-88
2022/08/10 03:01:03;;;;;;;3.13;2.80;;;;;;;16.53;75.41;102424.66;6160640;23;20009;-88
2022/08/10 03:04:02;;;;;;;5.53;2.85;;;;;;;16.45;75.57;102416.72;6159700;23;20012;-88
2022/08/10 03:06:33;;;;;;;4.40;3.10;;;;;;;16.47;75.69;102423.63;6179639;23;20338;-86
2022/08/10 03:09:01;;;;;;;5.07;2.92;;;;;;;16.44;76.09;102415.84;6159973;23;20005;-86
2022/08/10 03:11:31;;;;;;;3.80;3.23;;;;;;;16.38;76.70;102410.41;6159894;23;20005;-86
2022/08/10 03:13:59;;;;;;;4.18;3.10;;;;;;;16.36;76.50;102407.91;6159145;23;20092;-86
2022/08/10 03:16:28;;;;;;;5.28;3.05;;;;;;;16.33;75.99;102415.69;6160922;23;20012;-89
2022/08/10 03:18:57;;;;;;;6.57;3.47;;;;;;;16.30;77.00;102408.75;6161670;23;20013;-86
2022/08/10 03:21:26;;;;;;;3.40;2.97;;;;;;;16.27;77.42;102404.56;6170406;23;20017;-86
2022/08/10 03:23:57;;;;;;;6.53;3.50;;;;;;;16.26;76.94;102413.81;6187864;23;20080;-85
2022/08/10 03:26:26;;;;;;;3.75;3.28;;;;;;;16.23;76.91;102402.47;6187913;23;20045;-85
2022/08/10 03:28:52;;;;;;;3.92;2.95;;;;;;;16.22;77.60;102406.25;6186303;23;20009;-85
2022/08/10 03:31:21;;;;;;;9.52;3.72;;;;;;;16.19;77.31;102406.69;6186133;23;20012;-85
2022/08/10 03:33:49;;;;;;;4.28;3.17;;;;;;;16.20;77.45;102411.09;6186168;23;20015;-86
2022/08/10 03:36:15;;;;;;;5.77;3.43;;;;;;;16.12;77.93;102404.81;6187442;23;20009;-86
2022/08/10 03:38:43;;;;;;;3.72;3.40;;;;;;;16.10;78.17;102392.38;6186359;23;20012;-86
2022/08/10 03:41:12;;;;;;;4.93;3.53;;;;;;;16.06;78.21;102402.94;6187250;23;20001;-86
2022/08/10 03:43:43;;;;;;;5.28;3.50;;;;;;;16.05;78.09;102411.38;6186319;23;20005;-86
2022/08/10 03:46:11;;;;;;;5.63;3.60;;;;;;;16.03;78.61;102407.97;6187100;23;20020;-86
2022/08/10 03:48:37;;;;;;;6.38;3.83;;;;;;;16.02;78.51;102415.34;6187348;23;20005;-86
2022/08/10 03:51:05;;;;;;;4.72;3.72;;;;;;;15.95;78.68;102414.53;6185962;23;20035;-86
2022/08/10 03:53:32;;;;;;;4.53;3.67;;;;;;;15.98;78.74;102413.28;6185458;23;20005;-86
2022/08/10 03:55:59;;;;;;;4.35;3.70;;;;;;;15.93;79.05;102417.47;6186718;23;20009;-85
2022/08/10 03:58:25;;;;;;;7.80;4.03;;;;;;;15.92;79.26;102417.69;6185930;23;20040;-85
2022/08/10 04:00:54;;;;;;;4.32;3.70;;;;;;;15.89;79.17;102423.59;6160678;23;20055;-86
2022/08/10 04:03:22;;;;;;;5.10;3.60;;;;;;;15.86;79.15;102413.06;6185435;23;20104;-86
2022/08/10 04:05:48;;;;;;;7.70;3.57;;;;;;;15.83;79.50;102418.97;6160552;23;20346;-85
2022/08/10 04:08:14;;;;;;;6.07;4.15;;;;;;;15.82;79.59;102409.06;6186189;23;20009;-86
2022/08/10 04:10:39;;;;;;;5.05;4.00;;;;;;;15.79;79.58;102411.16;6185970;23;20005;-86
2022/08/10 04:13:05;;;;;;;6.57;4.03;;;;;;;15.81;80.05;102423.81;6185279;23;20327;-85
2022/08/10 04:15:37;;;;;;;4.57;3.77;;;;;;;15.75;80.54;102417.25;6186317;23;20488;-86
2022/08/10 04:18:03;;;;;;;6.38;4.05;;;;;;;15.75;80.50;102415.38;6185667;23;20095;-86
2022/08/10 04:20:39;;;;;;;6.45;3.70;;;;;;;15.75;80.12;102423.59;6190068;23;20442;-86
2022/08/10 04:23:14;;;;;;;4.30;3.90;;;;;;;15.74;80.15;102421.06;6191690;23;20092;-86
2022/08/10 04:25:40;;;;;;;5.83;3.77;;;;;;;15.75;80.37;102420.84;6190873;23;20009;-85
2022/08/10 04:28:07;;;;;;;4.70;4.05;;;;;;;15.73;80.45;102420.19;6189770;23;20437;-86
2022/08/10 04:30:34;;;;;;;6.60;4.43;;;;;;;15.70;80.49;102425.25;6216754;23;20008;-86
2022/08/10 04:33:01;;;;;;;6.10;3.75;;;;;;;15.69;80.57;102420.84;6190472;23;20004;-85
2022/08/10 04:35:30;;;;;;;9.13;4.07;;;;;;;15.71;81.19;102424.22;6190914;23;20354;-85
2022/08/10 04:38:00;;;;;;;4.50;3.90;;;;;;;15.70;80.51;102428.84;6190304;23;20010;-86
2022/08/10 04:40:30;;;;;;;4.80;3.92;;;;;;;15.75;80.74;102425.47;6190237;23;20009;-86
2022/08/10 04:42:59;;;;;;;5.10;4.32;;;;;;;15.74;80.87;102421.88;6190317;23;20341;-86
2022/08/10 04:45:25;;;;;;;6.30;4.07;;;;;;;15.78;80.86;102422.31;6190304;23;20013;-86
2022/08/10 04:47:50;;;;;;;6.60;4.07;;;;;;;15.79;80.70;102424.03;6216573;23;20080;-86
2022/08/10 04:50:21;;;;;;;4.83;4.40;;;;;;;15.82;80.86;102426.31;6165140;23;20104;-86
2022/08/10 04:52:46;;;;;;;11.25;4.50;;;;;;;15.89;80.82;102420.84;6190314;23;20064;-86
2022/08/10 04:55:12;;;;;;;9.20;4.27;;;;;;;15.84;80.46;102416.03;6216589;23;20399;-86
2022/08/10 04:57:37;;;;;;;4.70;4.20;;;;;;;15.85;80.68;102408.66;6189927;23;20446;-86
2022/08/10 05:00:05;;;;;;;6.28;4.13;;;;;;;15.88;80.78;102421.91;6190505;23;20048;-85
2022/08/10 05:02:30;;;;;;;8.05;4.47;;;;;;;15.85;81.11;102412.22;6190543;23;20005;-88
2022/08/10 05:04:56;;;;;;;6.33;4.00;;;;;;;15.91;81.28;102414.09;6190428;23;20011;-83
2022/08/10 05:07:21;;;;;;;7.03;4.20;;;;;;;15.94;81.21;102419.19;6216371;23;20083;-83
2022/08/10 05:09:48;;;;;;;5.63;4.45;;;;;;;16.01;80.90;102419.16;6165312;23;20019;-84
2022/08/10 05:12:13;;;;;;;5.73;4.20;;;;;;;16.03;80.67;102413.44;6189760;23;20008;-84
2022/08/10 05:14:39;;;;;;;4.65;4.15;;;;;;;16.08;80.93;102419.16;6190077;23;20083;-82
2022/08/10 05:17:04;;;;;;;8.47;4.70;;;;;;;16.09;80.72;102416.19;6216190;23;20040;-81
2022/08/10 05:19:30;;;;;;;6.63;4.43;;;;;;;16.15;80.67;102417.22;6190351;23;20011;-80
2022/08/10 05:21:55;;;;;;;6.37;4.30;;;;;;;16.22;79.83;102418.03;6189711;23;20500;-81
2022/08/10 05:24:21;;;;;;;6.05;4.40;;;;;;;16.25;80.14;102419.50;6217273;23;20016;-81
2022/08/10 05:26:46;;;;;;;9.53;4.60;;;;;;;16.26;79.92;102421.19;6140114;23;20351;-81
2022/08/10 05:29:11;;;;;;;5.43;4.60;;;;;;;16.29;79.95;102418.03;6165116;23;20449;-80
2022/08/10 05:31:37;;;;;;;7.63;4.37;;;;;;;16.35;80.18;102422.63;6190589;23;20005;-80
2022/08/10 05:34:03;;;;;;;6.55;4.85;;;;;;;16.38;79.88;102429.59;6216329;23;20009;-80
2022/08/10 05:36:28;;;;;;;8.53;4.77;;;;;;;16.43;79.83;102430.63;6217043;23;20009;-81
2022/08/10 05:38:55;;;;;;;7.40;4.83;;;;;;;16.48;79.76;102427.22;6189088;23;20051;-80
2022/08/10 05:41:21;;;;;;;5.93;4.70;;;;;;;16.49;79.62;102429.75;6189695;23;20005;-80
2022/08/10 05:43:50;;;;;;;6.05;4.57;;;;;;;16.55;79.08;102430.78;6190659;23;20008;-79
2022/08/10 05:46:15;;;;;;;6.72;5.05;;;;;;;16.58;79.07;102430.34;6140239;23;20008;-79
2022/08/10 05:48:41;;;;;;;5.80;5.07;;;;;;;16.64;79.22;102436.88;6189634;23;20016;-80
2022/08/10 05:51:07;;;;;;;10.27;5.50;;;;;;;16.69;78.81;102423.34;6190151;23;20446;-79
2022/08/10 05:53:33;;;;;;;9.43;5.13;;;;;;;16.74;79.22;102429.03;6164764;23;20426;-79
2022/08/10 05:56:01;;;;;;;12.10;5.30;;;;;;;16.78;78.91;102435.72;6189677;23;20422;-80
2022/08/10 05:58:26;;;;;;;7.00;5.30;;;;;;;16.84;79.09;102440.34;6216395;23;20008;-80
2022/08/10 06:00:55;;;;;;;11.10;5.87;;;;;;;16.85;79.57;102432.97;6164962;23;20070;-80
2022/08/10 06:03:26;;;;;;;8.52;6.28;;;;;;;16.83;79.45;102438.66;6216472;23;20012;-80
2022/08/10 06:05:57;;;;;;;7.03;5.90;;;;;;;16.90;79.42;102441.38;6190053;23;20009;-79
2022/08/10 06:08:27;;;;;;;9.90;6.88;;;;;;;16.92;79.14;102428.31;6189442;23;20433;-80
2022/08/10 06:10:58;;;;;;;8.77;6.25;;;;;;;16.98;79.52;102435.66;6189598;23;20005;-80
2022/08/10 06:16:12;;;;;;;9.30;6.50;;;;;;;17.07;79.03;102435.41;6215930;23;20026;-80
2022/08/10 06:18:37;;;;;;;12.57;6.53;;;;;;;17.16;79.05;102442.31;6216437;23;20011;-80
2022/08/10 06:21:04;;;;;;;8.32;5.97;;;;;;;17.22;78.64;102444.16;6189071;23;20322;-81
2022/08/10 06:23:31;;;;;;;7.03;6.03;;;;;;;17.34;78.26;102438.81;6189817;23;20501;-83
2022/08/10 06:25:56;;;;;;;10.27;6.15;;;;;;;17.49;77.37;102452.19;6216227;23;20012;-83
2022/08/10 06:28:24;;;;;;;10.48;6.53;;;;;;;17.59;76.91;102444.31;6164954;23;20013;-84
2022/08/10 06:30:53;;;;;;;8.25;5.90;;;;;;;17.68;76.55;102442.97;6189475;23;20084;-83
2022/08/10 06:33:25;;;;;;;8.50;7.13;;;;;;;17.78;76.41;102442.47;6164679;23;20032;-84
2022/08/10 06:35:55;;;;;;;8.88;6.55;;;;;;;17.85;75.58;102442.41;6165505;23;20009;-84
2022/08/10 06:38:24;;;;;;;7.47;6.70;;;;;;;18.00;75.11;102433.84;6189312;23;20454;-84
2022/08/10 06:40:52;;;;;;;7.10;6.32;;;;;;;18.06;75.06;102432.94;6216359;23;20032;-83
2022/08/10 06:43:23;;;;;;;7.75;6.57;;;;;;;18.10;74.80;102430.56;6189082;23;20004;-84
2022/08/10 06:45:59;;;;;;;8.70;6.50;;;;;;;18.30;73.81;102435.84;6188865;23;20054;-82
2022/08/10 06:48:32;;;;;;;11.02;5.82;;;;;;;18.38;73.27;102439.13;6190263;23;20012;-84
2022/08/10 06:51:16;;;;;;;6.20;5.60;;;;;;;18.40;72.96;102434.22;6190626;23;20410;-84
2022/08/10 06:53:49;;;;;;;10.45;6.15;;;;;;;18.52;72.76;102438.97;6217696;23;20001;-84
2022/08/10 06:56:20;;;;;;;8.80;6.22;;;;;;;18.55;72.31;102431.09;6191191;23;20023;-84
2022/08/10 06:58:53;;;;;;;11.73;6.43;;;;;;;18.57;72.46;102433.59;6191546;23;20017;-83
2022/08/10 07:01:24;;;;;;;8.10;5.95;;;;;;;18.61;72.18;102431.25;6190872;23;20115;-84
2022/08/10 07:04:01;;;;;;;9.40;6.63;;;;;;;18.65;72.46;102436.06;6191611;23;20008;-84
2022/08/10 07:06:28;;;;;;;9.93;5.95;;;;;;;18.70;71.79;102438.94;6191204;23;20015;-83
2022/08/10 07:09:04;;;;;;;7.90;6.18;;;;;;;18.80;71.38;102443.06;6190624;23;19997;-83
2022/08/10 07:11:33;;;;;;;6.93;5.43;;;;;;;18.94;70.76;102441.81;6191074;23;20445;-84
2022/08/10 07:14:01;;;;;;;9.15;5.80;;;;;;;19.01;70.55;102450.00;6217646;23;20364;-83
2022/08/10 07:16:28;;;;;;;7.45;5.35;;;;;;;19.11;70.54;102442.03;6190956;23;20013;-84
2022/08/10 07:18:56;;;;;;;10.32;5.68;;;;;;;19.19;70.13;102438.94;6190686;23;20012;-85
2022/08/10 07:21:27;;;;;;;5.85;5.28;;;;;;;19.25;69.80;102448.16;6185352;23;20090;-82
2022/08/10 07:23:54;;;;;;;8.87;5.73;;;;;;;19.28;69.32;102447.69;6187569;23;20032;-84
2022/08/10 07:26:21;;;;;;;8.13;5.65;;;;;;;19.33;68.83;102452.50;6185355;23;20009;-86
2022/08/10 07:28:49;;;;;;;14.52;5.68;;;;;;;19.35;69.31;102453.09;6185966;23;20051;-82
2022/08/10 07:31:17;;;;;;;7.80;5.97;;;;;;;19.35;69.30;102453.91;6186099;23;20091;-81
2022/08/10 07:33:47;;;;;;;7.00;5.47;;;;;;;19.42;69.01;102445.56;6185939;23;20016;-82
2022/08/10 07:36:16;;;;;;;9.60;5.30;;;;;;;19.50;68.44;102452.63;6185866;23;20024;-81
2022/08/10 07:38:42;;;;;;;6.35;5.53;;;;;;;19.55;68.53;102450.88;6187218;23;20004;-82
2022/08/10 07:41:14;;;;;;;7.95;5.25;;;;;;;19.59;68.01;102453.97;6162083;23;20024;-82
2022/08/10 07:43:42;;;;;;;8.45;6.00;;;;;;;19.63;67.69;102455.19;6162064;23;20013;-82
2022/08/10 07:46:11;;;;;;;9.57;5.80;;;;;;;19.69;67.51;102459.72;6187515;23;20012;-82
2022/08/10 07:48:43;;;;;;;10.47;5.60;;;;;;;19.79;67.01;102451.75;6185801;23;20014;-82
2022/08/10 07:51:10;;;;;;;6.18;5.60;;;;;;;19.85;66.41;102447.19;6187420;23;20005;-83
2022/08/10 07:53:42;;;;;;;6.07;4.95;;;;;;;19.95;66.06;102450.19;6185742;23;20001;-82
2022/08/10 07:56:09;;;;;;;10.23;5.30;;;;;;;20.01;65.17;102451.16;6187669;23;20005;-85
2022/08/10 07:58:46;;;;;;;7.25;5.38;;;;;;;20.13;64.81;102451.97;6160914;23;20011;-82
2022/08/10 08:01:20;;;;;;;7.60;5.70;;;;;;;20.21;63.97;102448.03;6186633;23;20005;-84
2022/08/10 08:03:47;;;;;;;7.45;5.50;;;;;;;20.27;63.85;102454.47;6185458;23;20088;-82
2022/08/10 08:06:15;;;;;;;6.28;5.40;;;;;;;20.31;63.72;102447.41;6187116;23;20011;-82
2022/08/10 08:08:44;;;;;;;8.98;5.60;;;;;;;20.35;63.91;102451.38;6186101;23;20009;-84
2022/08/10 08:11:13;;;;;;;7.13;5.78;;;;;;;20.40;64.06;102454.22;6185450;23;20035;-84
2022/08/10 08:13:39;;;;;;;12.70;5.93;;;;;;;20.47;64.75;102452.16;6185826;23;20008;-84
2022/08/10 08:16:09;;;;;;;9.07;5.43;;;;;;;20.56;63.37;102452.63;6160682;23;20013;-84
2022/08/10 08:18:36;;;;;;;5.47;4.97;;;;;;;20.61;63.33;102452.75;6184961;23;20066;-84
2022/08/10 08:21:02;;;;;;;8.23;4.93;;;;;;;20.62;62.71;102448.88;6197022;23;20020;-83
2022/08/10 08:23:32;;;;;;;8.87;5.73;;;;;;;20.71;63.12;102448.53;6216631;23;20000;-84
2022/08/10 08:25:59;;;;;;;8.32;5.55;;;;;;;20.76;63.58;102452.25;6190548;23;20465;-84
2022/08/10 08:28:28;;;;;;;8.18;5.50;;;;;;;20.83;62.71;102454.84;6190397;23;20009;-83
2022/08/10 08:30:57;;;;;;;13.38;5.50;;;;;;;20.89;61.59;102453.88;6190373;23;20016;-85
2022/08/10 08:33:26;;;;;;;6.80;5.72;;;;;;;20.99;61.79;102458.75;6189397;23;20008;-83
2022/08/10 08:35:58;;;;;;;10.47;5.57;;;;;;;21.04;62.40;102453.34;6190633;23;20008;-84
2022/08/10 08:38:31;;;;;;;7.32;5.47;;;;;;;21.12;61.34;102450.16;6190199;23;20062;-85
2022/08/10 08:41:14;;;;;;;8.70;5.72;;;;;;;21.20;61.86;102444.25;6190545;23;20008;-85
2022/08/10 08:44:14;;;;;;;7.72;5.75;;;;;;;21.32;61.89;102448.88;6190422;23;20019;-84
2022/08/10 08:46:39;;;;;;;7.25;5.57;;;;;;;21.45;61.27;102451.31;6188532;23;20073;-83
2022/08/10 08:49:36;;;;;;;13.40;5.80;;;;;;;21.56;60.82;102449.56;6190006;23;20087;-85
2022/08/10 08:52:34;;;;;;;5.90;4.90;;;;;;;21.65;60.34;102456.34;6190053;23;20000;-83
2022/08/10 08:55:30;;;;;;;11.63;5.97;;;;;;;21.70;60.13;102450.06;6190915;23;20064;-85
2022/08/10 08:58:00;;;;;;;11.13;5.35;;;;;;;21.80;59.07;102449.41;6190625;23;20090;-85
2022/08/10 09:00:49;;;;;;;8.40;5.75;;;;;;;21.91;59.74;102456.78;6190508;23;20091;-85
2022/08/10 09:03:53;;;;;;;9.98;5.80;;;;;;;22.02;59.64;102447.53;6216284;23;20334;-85
2022/08/10 09:06:40;;;;;;;11.07;5.88;;;;;;;22.20;57.81;102454.72;6189809;23;20009;-84
2022/08/10 09:09:29;;;;;;;8.63;6.10;;;;;;;22.31;58.25;102452.06;6217123;23;20009;-84
2022/08/10 09:12:12;;;;;;;8.63;6.63;;;;;;;22.42;57.55;102442.84;6189604;23;20012;-84
2022/08/10 09:14:51;;;;;;;8.05;6.10;;;;;;;22.53;57.88;102443.78;6189704;23;20027;-85
2022/08/10 09:17:30;;;;;;;11.65;5.95;;;;;;;22.64;56.27;102431.78;6189774;23;20005;-84
2022/08/10 09:20:14;;;;;;;9.20;5.32;;;;;;;22.74;57.31;102434.66;6217362;23;20087;-85
2022/08/10 09:22:49;;;;;;;8.23;5.43;;;;;;;22.89;55.38;102430.38;6216390;23;20012;-85
2022/08/10 09:25:23;;;;;;;8.93;5.88;;;;;;;23.03;55.62;102428.03;6216287;23;20008;-85
2022/08/10 09:28:02;;;;;;;9.82;5.95;;;;;;;23.16;55.59;102418.50;6216576;23;20008;-85
2022/08/10 09:30:43;;;;;;;9.10;5.45;;;;;;;23.28;55.18;102416.38;6216638;23;20430;-85
2022/08/10 09:33:35;;;;;;;9.07;5.82;;;;;;;23.44;54.93;102420.97;6188383;23;20036;-84
2022/08/10 09:36:06;;;;;;;8.10;4.77;;;;;;;23.61;54.10;102425.53;6190192;23;20015;-85
2022/08/10 09:38:53;;;;;;;9.07;4.50;;;;;;;23.73;53.74;102420.63;6189815;23;20013;-85
2022/08/10 09:41:56;;;;;;;10.75;4.72;;;;;;;23.86;52.76;102418.50;6189692;23;20361;-85
2022/08/10 09:44:38;;;;;;;10.50;4.50;;;;;;;24.00;52.04;102416.94;6189617;23;20009;-85
2022/08/10 09:47:23;;;;;;;10.77;4.40;;;;;;;24.09;52.65;102412.53;6189569;23;20016;-85
2022/08/10 09:50:19;;;;;;;8.47;5.33;;;;;;;24.27;52.01;102411.28;6169457;23;20083;-84
2022/08/10 09:52:48;;;;;;;7.18;5.10;;;;;;;24.53;50.84;102408.56;6150545;23;20016;-85
2022/08/10 09:55:37;;;;;;;8.05;4.63;;;;;;;24.77;50.28;102405.34;6190165;23;20019;-85
2022/08/10 09:58:09;;;;;;;11.07;4.70;;;;;;;24.98;49.14;102400.66;6190456;23;20015;-85
2022/08/10 10:00:43;;;;;;;11.82;4.80;;;;;;;25.22;48.36;102399.00;6216256;23;20016;-84
2022/08/10 10:03:46;;;;;;;9.20;4.07;;;;;;;25.42;48.41;102390.97;6189501;23;20048;-87
2022/08/10 10:06:31;;;;;;;7.28;3.92;;;;;;;25.62;46.65;102396.53;6143352;23;20067;-85
2022/08/10 10:09:08;;;;;;;7.75;4.72;;;;;;;25.88;47.21;102399.22;6189520;23;20012;-84
2022/08/10 10:11:51;;;;;;;9.23;4.85;;;;;;;26.00;45.80;102385.91;6216323;23;20011;-84
2022/08/10 10:14:29;;;;;;;9.10;4.80;;;;;;;26.17;45.35;102390.28;6215886;23;20032;-85
2022/08/10 10:17:15;;;;;;;7.73;4.23;;;;;;;26.38;45.01;102383.53;6189203;23;20023;-85
2022/08/10 10:20:09;;;;;;;7.07;3.75;;;;;;;26.57;44.30;102382.84;6216176;23;20034;-85
2022/08/10 10:23:14;;;;;;;6.63;4.20;;;;;;;26.66;43.38;102378.34;6189173;23;20047;-85
2022/08/10 10:26:10;;;;;;;7.07;4.55;;;;;;;26.83;43.84;102374.38;6171728;23;20028;-85
2022/08/10 10:28:56;;;;;;;5.53;4.07;;;;;;;27.06;43.38;102368.06;6191248;23;20422;-84
2022/08/10 10:31:29;;;;;;;8.00;3.70;;;;;;;27.35;42.20;102367.28;6218710;23;20001;-85
2022/08/10 10:34:13;;;;;;;5.28;3.60;;;;;;;27.54;40.61;102358.19;6218366;23;20009;-85
2022/08/10 10:36:46;;;;;;;8.95;3.72;;;;;;;27.80;38.41;102354.00;6191549;23;20066;-85
2022/08/10 10:39:13;;;;;;;6.78;3.50;;;;;;;27.94;37.83;102358.84;6217852;23;20001;-84
2022/08/10 10:41:55;;;;;;;8.23;3.42;;;;;;;28.14;38.23;102352.19;6166333;23;20016;-84
2022/08/10 10:44:38;;;;;;;5.63;3.47;;;;;;;28.23;38.73;102356.00;6192333;23;20415;-83
2022/08/10 10:47:06;;;;;;;5.65;3.58;;;;;;;28.43;36.29;102349.28;6191621;23;20390;-87
2022/08/10 10:49:56;;;;;;;9.95;3.30;;;;;;;28.62;37.64;102342.94;6191305;23;20008;-84
2022/08/10 10:53:18;;;;;;;6.70;3.40;;;;;;;28.84;36.80;102337.53;6217810;23;20024;-83
2022/08/10 10:55:43;;;;;;;4.97;3.42;;;;;;;29.21;35.38;102338.59;6156413;23;20004;-83
2022/08/10 10:58:37;;;;;;;8.13;3.63;;;;;;;29.44;36.01;102335.97;6190874;23;20008;-83
2022/08/10 11:01:06;;;;;;;4.10;3.40;;;;;;;29.77;33.40;102338.69;6188256;23;20008;-83
2022/08/10 11:03:56;;;;;;;6.27;3.20;;;;;;;29.87;33.68;102318.91;6218214;23;20028;-83
2022/08/10 11:06:26;;;;;;;8.13;3.55;;;;;;;30.01;32.39;102318.88;6191244;23;20032;-83
2022/08/10 11:08:59;;;;;;;7.22;3.70;;;;;;;30.21;32.16;102317.63;6190767;23;20083;-83
2022/08/10 11:11:30;;;;;;;7.10;3.90;;;;;;;30.41;31.41;102318.31;6192230;23;20008;-84
2022/08/10 11:14:13;;;;;;;3.72;3.22;;;;;;;30.69;31.75;102324.63;6217407;23;20009;-84
2022/08/10 11:16:47;;;;;;;5.97;4.17;;;;;;;30.94;30.69;102316.75;6217927;23;20322;-84
2022/08/10 11:19:40;;;;;;;6.20;3.85;;;;;;;31.32;30.69;102302.31;6191289;23;20051;-83
2022/08/10 11:22:33;;;;;;;5.40;3.35;;;;;;;32.42;29.73;102307.25;6218305;23;20074;-84
2022/08/10 11:25:11;;;;;;;10.88;3.70;;;;;;;35.01;27.79;102303.00;6152053;23;20147;-83
2022/08/10 11:28:20;;;;;;;7.45;3.38;;;;;;;38.54;22.60;102293.03;6217780;23;20012;-83
2022/08/10 11:31:32;;;;;;;7.30;3.90;;;;;;;41.09;19.99;102289.50;6101301;23;20010;-84
2022/08/10 11:34:00;;;;;;;5.90;3.45;;;;;;;42.87;16.41;102295.75;6101309;23;20038;-83
2022/08/10 11:36:32;;;;;;;6.38;3.95;;;;;;;44.44;17.08;102287.31;6101071;23;20439;-84
2022/08/10 11:39:25;;;;;;;5.82;4.70;;;;;;;46.29;15.67;102279.47;6153050;23;20012;-83
2022/08/10 11:42:02;;;;;;;6.72;4.32;;;;;;;46.19;15.91;102277.53;6190805;23;20004;-84
2022/08/10 11:44:52;;;;;;;6.27;4.70;;;;;;;47.15;13.26;102271.56;6217645;23;20134;-84
2022/08/10 11:47:22;;;;;;;7.60;4.55;;;;;;;47.91;12.45;102270.94;6190371;23;20012;-82
2022/08/10 11:50:02;;;;;;;5.68;5.03;;;;;;;48.41;13.08;102268.97;6190827;23;20008;-82
2022/08/10 11:52:52;;;;;;;7.03;5.20;;;;;;;49.64;12.74;102260.09;6190764;23;20005;-82
2022/08/10 11:55:23;;;;;;;7.38;5.43;;;;;;;50.22;11.19;102259.16;6217144;23;20004;-82
2022/08/10 11:57:54;;;;;;;10.07;5.60;;;;;;;50.83;10.28;102253.50;6217138;23;20001;-82
2022/08/10 12:00:20;;;;;;;7.75;6.05;;;;;;;51.44;9.95;102239.75;6191110;23;20015;-82
2022/08/10 12:03:00;;;;;;;6.90;6.18;;;;;;;52.07;10.48;102242.75;6190531;23;20028;-82
2022/08/10 12:05:31;;;;;;;7.05;6.40;;;;;;;52.03;9.66;102247.88;6217466;23;20009;-82